Time;durP1;ratioP1;P1;durP2;ratioP2;P2;SDS_P1;SDS_P2;PMS_P1;PMS_P2;Temp;Humidity;BMP_temperature;BMP_pressure;BME280_temperature;BME280_humidity;BME280_pressure;Samples;Min_cycle;Max_cycle;Signal;HPM_P1;HPM_P2
2023/10/10 00:00:23;;;;;;;0.10;0.10;;;15.70;99.90;;;;;;5087655;28;20051;-75
2023/10/10 00:02:51;;;;;;;0.65;0.20;;;15.70;99.90;;;;;;5102007;27;20092;-75
2023/10/10 00:05:18;;;;;;;0.10;0.10;;;15.70;99.90;;;;;;5079786;28;20393;-75
2023/10/10 00:07:43;;;;;;;0.50;0.47;;;15.70;99.90;;;;;;5105593;27;20043;-75
2023/10/10 00:10:13;;;;;;;0.20;0.20;;;15.70;99.90;;;;;;5083623;28;20035;-75
2023/10/10 00:12:39;;;;;;;0.32;0.32;;;15.70;99.90;;;;;;5090171;28;20534;-74
2023/10/10 00:15:09;;;;;;;0.10;0.10;;;15.70;99.90;;;;;;5088769;28;20040;-74
2023/10/10 00:17:36;;;;;;;0.47;0.38;;;15.70;99.90;;;;;;5091666;28;20038;-75
2023/10/10 00:20:22;;;;;;;0.00;0.00;;;15.70;99.90;;;;;;5084485;28;20036;-75
2023/10/10 00:22:49;;;;;;;0.22;0.22;;;15.70;99.90;;;;;;5118076;27;20477;-75
2023/10/10 00:25:17;;;;;;;0.20;0.20;;;15.80;99.90;;;;;;5088894;28;20147;-75
2023/10/10 00:27:48;;;;;;;0.10;0.10;;;15.70;99.90;;;;;;5082854;28;20543;-75
2023/10/10 00:30:14;;;;;;;0.40;0.20;;;15.80;99.90;;;;;;5088009;28;20455;-75
2023/10/10 00:32:42;;;;;;;0.35;0.20;;;15.80;99.90;;;;;;5116168;28;20103;-75
2023/10/10 00:35:11;;;;;;;0.52;0.28;;;15.80;99.90;;;;;;5088389;28;20043;-74
2023/10/10 00:37:37;;;;;;;0.20;0.20;;;15.80;99.90;;;;;;5085082;28;20039;-74
2023/10/10 00:40:09;;;;;;;0.10;0.10;;;15.80;99.90;;;;;;5090543;28;20031;-74
2023/10/10 00:42:41;;;;;;;;;;;15.80;99.90;;;;;;5087370;28;20114;-74
2023/10/10 00:45:12;;;;;;;0.45;0.15;;;15.80;99.90;;;;;;5125579;28;20053;-74
2023/10/10 00:47:49;;;;;;;1.98;0.57;;;15.80;99.90;;;;;;5086812;28;20035;-74
2023/10/10 00:50:17;;;;;;;0.70;0.68;;;15.80;99.90;;;;;;5086046;28;20035;-75
2023/10/10 00:52:48;;;;;;;0.45;0.45;;;15.80;99.90;;;;;;5089349;28;20046;-75
2023/10/10 00:55:14;;;;;;;0.03;0.03;;;15.80;99.90;;;;;;5091326;28;20474;-74
2023/10/10 00:57:40;;;;;;;0.13;0.13;;;15.80;99.90;;;;;;5084455;28;20066;-75
2023/10/10 01:00:09;;;;;;;0.15;0.13;;;15.80;99.90;;;;;;5119974;28;20424;-75
2023/10/10 01:02:36;;;;;;;0.30;0.30;;;15.80;99.90;;;;;;5101984;28;20031;-75
2023/10/10 01:05:12;;;;;;;0.22;0.22;;;15.80;99.90;;;;;;5119414;28;20478;-75
2023/10/10 01:07:44;;;;;;;0.20;0.20;;;15.80;99.90;;;;;;5080480;28;20032;-75
2023/10/10 01:10:16;;;;;;;0.80;0.47;;;15.80;99.90;;;;;;5071127;28;20040;-75
2023/10/10 01:12:42;;;;;;;0.32;0.32;;;15.80;99.90;;;;;;5088428;28;20031;-75
2023/10/10 01:15:26;;;;;;;0.40;0.25;;;15.80;99.90;;;;;;5090335;28;20038;-75
2023/10/10 01:17:54;;;;;;;0.00;0.00;;;15.80;99.90;;;;;;5115134;28;20051;-75
2023/10/10 01:20:33;;;;;;;0.10;0.10;;;15.80;99.90;;;;;;5084376;28;20562;-75
2023/10/10 01:23:00;;;;;;;0.13;0.10;;;15.80;99.90;;;;;;5121767;27;20064;-75
2023/10/10 01:28:13;;;;;;;0.85;0.28;;;15.70;99.90;;;;;;5090332;28;20047;-75
2023/10/10 01:30:57;;;;;;;0.93;0.45;;;15.70;99.90;;;;;;5082025;28;20473;-75
2023/10/10 01:33:36;;;;;;;0.10;0.10;;;15.70;99.90;;;;;;5116742;27;20071;-75
2023/10/10 01:36:29;;;;;;;0.30;0.30;;;15.70;99.90;;;;;;5090714;28;20510;-75
2023/10/10 01:39:02;;;;;;;0.55;0.32;;;15.60;99.90;;;;;;5089221;28;20109;-75
2023/10/10 01:41:31;;;;;;;0.10;0.10;;;15.60;99.90;;;;;;5099177;27;20051;-75
2023/10/10 01:44:12;;;;;;;0.10;0.10;;;15.60;99.90;;;;;;5114258;27;20065;-75
2023/10/10 01:46:41;;;;;;;0.30;0.30;;;15.60;99.90;;;;;;5091965;28;20458;-75
2023/10/10 01:49:19;;;;;;;0.10;0.10;;;15.60;99.90;;;;;;5090972;28;20071;-75
2023/10/10 01:51:44;;;;;;;0.63;0.30;;;15.50;99.90;;;;;;5125256;27;20180;-75
2023/10/10 01:54:20;;;;;;;0.10;0.10;;;15.50;99.90;;;;;;5075786;28;20636;-75
2023/10/10 01:56:47;;;;;;;0.10;0.10;;;15.50;99.90;;;;;;5091633;28;20076;-75
2023/10/10 01:59:17;;;;;;;0.20;0.20;;;15.50;99.90;;;;;;5117670;27;20044;-75
2023/10/10 02:01:42;;;;;;;0.20;0.10;;;15.50;99.90;;;;;;5090701;28;20047;-75
2023/10/10 02:04:08;;;;;;;0.30;0.30;;;15.50;99.90;;;;;;5087568;27;20470;-75
2023/10/10 02:06:39;;;;;;;0.10;0.10;;;15.40;99.90;;;;;;5088351;28;20112;-75
2023/10/10 02:11:50;;;;;;;0.15;0.15;;;15.40;99.90;;;;;;5082791;28;20405;-74
2023/10/10 02:14:19;;;;;;;0.05;0.05;;;15.40;99.90;;;;;;5121755;27;20043;-74
2023/10/10 02:16:49;;;;;;;0.15;0.15;;;15.40;99.90;;;;;;5087892;28;20505;-74
2023/10/10 02:19:25;;;;;;;0.50;0.25;;;15.40;99.90;;;;;;5118965;27;20106;-75
2023/10/10 02:22:12;;;;;;;0.77;0.73;;;15.30;99.90;;;;;;5094926;28;20427;-74
2023/10/10 02:27:05;;;;;;;0.30;0.30;;;15.30;99.90;;;;;;5095510;27;20122;-74
2023/10/10 02:32:08;;;;;;;0.52;0.10;;;15.30;99.90;;;;;;5089197;28;20406;-74
2023/10/10 02:34:36;;;;;;;1.58;1.35;;;15.40;99.90;;;;;;5091125;28;20386;-74
2023/10/10 02:39:59;;;;;;;0.45;0.45;;;15.40;99.90;;;;;;5088778;28;20108;-75
2023/10/10 02:42:25;;;;;;;0.30;0.30;;;15.40;99.90;;;;;;5119290;27;20049;-74
2023/10/10 02:44:57;;;;;;;0.17;0.17;;;15.40;99.90;;;;;;5093411;28;20495;-74
2023/10/10 02:47:32;;;;;;;0.40;0.40;;;15.40;99.90;;;;;;5086689;28;20729;-74
2023/10/10 02:50:39;;;;;;;1.15;0.47;;;15.50;99.90;;;;;;5086471;28;20035;-74
2023/10/10 02:53:03;;;;;;;0.10;0.10;;;15.40;99.90;;;;;;5091142;28;20454;-74
2023/10/10 02:55:33;;;;;;;0.63;0.63;;;15.50;99.90;;;;;;5085478;27;20393;-74
2023/10/10 02:57:59;;;;;;;3.40;0.90;;;15.50;99.90;;;;;;5089739;28;20719;-75
2023/10/10 03:02:53;;;;;;;0.20;0.20;;;15.50;99.90;;;;;;5122399;27;20059;-74
2023/10/10 03:05:38;;;;;;;0.40;0.40;;;15.50;99.90;;;;;;5113482;27;20410;-75
2023/10/10 03:08:12;;;;;;;0.50;0.50;;;15.50;99.90;;;;;;5103298;27;20027;-75
2023/10/10 03:10:41;;;;;;;0.85;0.30;;;15.40;99.90;;;;;;5087281;28;20099;-74
2023/10/10 03:15:54;;;;;;;0.85;0.85;;;15.40;99.90;;;;;;5087054;28;20047;-74
2023/10/10 03:18:28;;;;;;;1.50;1.35;;;15.50;99.90;;;;;;5088419;28;20521;-75
2023/10/10 03:23:53;;;;;;;0.60;0.47;;;15.50;99.90;;;;;;5083242;28;20055;-74
2023/10/10 03:26:32;;;;;;;2.73;1.23;;;15.50;99.90;;;;;;5114919;27;20039;-74
2023/10/10 03:29:04;;;;;;;0.20;0.20;;;15.50;99.90;;;;;;5090629;28;20739;-74
2023/10/10 03:31:46;;;;;;;2.15;1.17;;;15.50;99.90;;;;;;5089495;27;20040;-74
2023/10/10 03:36:44;;;;;;;2.17;1.03;;;15.40;99.90;;;;;;5085998;28;20055;-75
2023/10/10 05:25:51;;;;;;;0.30;0.20;;;14.90;99.90;;;;;;5107272;28;20052;-73
2023/10/10 05:28:18;;;;;;;0.82;0.82;;;14.90;99.90;;;;;;5124385;27;20433;-72
2023/10/10 05:30:45;;;;;;;0.57;0.47;;;14.90;99.90;;;;;;5124372;27;20035;-73
2023/10/10 05:33:12;;;;;;;4.80;1.08;;;14.90;99.90;;;;;;5085383;28;20534;-73
2023/10/10 05:35:48;;;;;;;1.77;0.65;;;14.90;99.90;;;;;;5121567;27;20048;-72
2023/10/10 05:38:15;;;;;;;0.75;0.75;;;14.80;99.90;;;;;;5122428;27;20039;-73
2023/10/10 05:40:43;;;;;;;0.82;0.68;;;14.80;99.90;;;;;;5093852;28;20043;-73
2023/10/10 05:43:14;;;;;;;2.17;0.22;;;14.70;99.90;;;;;;5090168;28;20048;-73
2023/10/10 05:45:40;;;;;;;0.27;0.27;;;14.70;99.90;;;;;;5125429;27;20040;-73
2023/10/10 05:48:06;;;;;;;1.10;0.68;;;14.70;99.90;;;;;;5086467;28;20296;-73
2023/10/10 05:50:35;;;;;;;0.38;0.38;;;14.60;99.90;;;;;;5094368;28;20042;-73
2023/10/10 05:53:03;;;;;;;0.45;0.45;;;14.60;99.90;;;;;;5076309;28;20485;-73
2023/10/10 05:55:31;;;;;;;0.10;0.10;;;14.60;99.90;;;;;;5094513;28;20237;-73
2023/10/10 05:57:57;;;;;;;0.55;0.52;;;14.50;99.90;;;;;;5085550;28;20130;-73
2023/10/10 06:00:26;;;;;;;0.50;0.50;;;14.50;99.90;;;;;;5091867;28;20131;-72
2023/10/10 06:02:52;;;;;;;0.30;0.30;;;14.40;99.90;;;;;;5086259;27;20044;-72
2023/10/10 06:05:18;;;;;;;3.00;1.38;;;14.40;99.90;;;;;;5088343;27;20100;-72
2023/10/10 06:07:43;;;;;;;0.65;0.65;;;14.40;99.90;;;;;;5087495;27;20038;-72
2023/10/10 06:10:19;;;;;;;1.88;0.28;;;14.30;99.90;;;;;;5091806;28;20248;-72
2023/10/10 06:12:46;;;;;;;0.20;0.20;;;14.30;99.90;;;;;;5088426;28;20070;-72
2023/10/10 06:15:12;;;;;;;0.28;0.28;;;14.40;99.90;;;;;;5126375;27;20120;-73
2023/10/10 06:17:41;;;;;;;0.20;0.20;;;14.40;99.90;;;;;;5086701;28;20036;-72
2023/10/10 06:20:08;;;;;;;0.32;0.32;;;14.40;99.90;;;;;;5077803;28;20036;-72
2023/10/10 06:22:34;;;;;;;0.40;0.40;;;14.40;99.90;;;;;;5082068;27;20039;-72
2023/10/10 06:24:59;;;;;;;0.20;0.20;;;14.50;99.90;;;;;;5092968;28;20379;-72
2023/10/10 06:27:28;;;;;;;1.10;0.82;;;14.50;99.90;;;;;;5087657;28;20123;-72
2023/10/10 06:30:00;;;;;;;3.83;0.35;;;14.60;99.90;;;;;;5093770;28;20078;-72
2023/10/10 06:32:30;;;;;;;0.32;0.25;;;14.60;99.90;;;;;;5091321;28;20084;-72
2023/10/10 06:37:43;;;;;;;2.83;1.85;;;14.70;99.90;;;;;;5089474;28;20046;-72
2023/10/10 06:40:10;;;;;;;0.55;0.22;;;14.70;99.90;;;;;;5087875;28;20040;-72
2023/10/10 06:42:36;;;;;;;1.75;0.38;;;14.80;99.90;;;;;;5085072;27;20462;-72
2023/10/10 06:45:10;;;;;;;0.55;0.43;;;14.80;99.90;;;;;;5087450;27;20093;-71
2023/10/10 06:47:39;;;;;;;0.30;0.30;;;14.90;99.90;;;;;;5115366;27;20396;-72
2023/10/10 06:50:10;;;;;;;8.13;3.35;;;15.00;99.90;;;;;;5119995;27;20470;-71
2023/10/10 06:52:39;;;;;;;1.90;0.77;;;15.10;99.90;;;;;;5112108;27;20037;-71
2023/10/10 06:55:21;;;;;;;0.47;0.47;;;15.10;99.90;;;;;;5084915;28;20031;-72
2023/10/10 06:57:57;;;;;;;0.63;0.63;;;15.20;99.90;;;;;;5086719;28;20043;-72
2023/10/10 07:03:10;;;;;;;1.40;1.30;;;15.40;99.90;;;;;;5086498;27;20044;-72
2023/10/10 07:05:35;;;;;;;1.88;1.15;;;15.50;99.90;;;;;;5118825;27;20044;-72
2023/10/10 07:08:19;;;;;;;2.28;0.75;;;15.50;99.90;;;;;;5091546;28;20046;-72
2023/10/10 07:10:45;;;;;;;1.25;0.70;;;15.60;99.90;;;;;;5120243;27;20036;-72
2023/10/10 07:13:14;;;;;;;1.15;0.63;;;15.70;99.90;;;;;;5087263;28;20035;-72
2023/10/10 07:15:51;;;;;;;2.78;0.80;;;15.70;99.90;;;;;;5085945;28;20180;-75
2023/10/10 07:18:22;;;;;;;5.47;2.88;;;15.70;99.90;;;;;;5086081;28;20043;-74
2023/10/10 07:21:04;;;;;;;2.60;1.38;;;15.70;99.90;;;;;;5091059;28;20611;-73
2023/10/10 07:24:02;;;;;;;2.35;1.20;;;15.80;99.90;;;;;;5083602;28;20044;-74
2023/10/10 07:26:28;;;;;;;1.45;1.20;;;15.80;99.90;;;;;;5079268;28;20303;-73
2023/10/10 07:28:54;;;;;;;1.65;0.95;;;15.80;99.90;;;;;;5086615;27;20079;-73
2023/10/10 07:31:21;;;;;;;1.65;1.05;;;15.90;99.90;;;;;;5087911;28;20565;-74
2023/10/10 07:33:55;;;;;;;2.55;1.48;;;15.90;99.90;;;;;;5087094;28;20040;-73
2023/10/10 07:36:25;;;;;;;2.53;1.38;;;15.90;99.90;;;;;;5076266;28;20791;-73
2023/10/10 07:38:55;;;;;;;2.13;1.92;;;15.90;99.90;;;;;;5086541;28;20366;-73
2023/10/10 07:41:27;;;;;;;2.38;1.67;;;15.90;99.90;;;;;;5083312;28;20138;-74
2023/10/10 07:43:58;;;;;;;2.30;1.80;;;15.90;99.90;;;;;;5083788;28;20452;-75
2023/10/10 07:46:27;;;;;;;3.78;1.67;;;16.00;99.90;;;;;;5084801;28;20092;-73
2023/10/10 07:48:56;;;;;;;4.72;2.05;;;16.00;99.90;;;;;;5104809;27;20035;-73
2023/10/10 07:51:28;;;;;;;2.40;1.92;;;16.00;99.90;;;;;;5091039;28;20156;-75
2023/10/10 07:55:03;;;;;;;5.05;2.38;;;16.00;99.90;;;;;;5115288;27;20359;-74
2023/10/10 07:56:55;;;;;;;2.88;2.63;;;16.00;99.90;;;;;;5073377;28;20162;-74
2023/10/10 07:59:21;;;;;;;4.53;2.53;;;16.10;99.90;;;;;;5069131;27;20579;-74
2023/10/10 08:01:47;;;;;;;10.52;2.35;;;16.10;99.90;;;;;;5086983;28;20119;-74
2023/10/10 08:04:14;;;;;;;3.45;2.42;;;16.20;99.90;;;;;;5076401;28;20044;-74
2023/10/10 08:06:44;;;;;;;6.60;2.47;;;16.20;99.90;;;;;;5085053;27;20035;-74
2023/10/10 08:11:45;;;;;;;2.63;2.42;;;16.20;99.90;;;;;;5125431;27;20116;-75
2023/10/10 08:14:10;;;;;;;3.22;3.00;;;16.30;99.90;;;;;;5088008;28;20481;-75
2023/10/10 08:16:39;;;;;;;4.60;2.45;;;16.40;99.90;;;;;;5087863;27;20114;-74
2023/10/10 08:19:06;;;;;;;2.85;2.58;;;16.40;99.90;;;;;;5085906;28;20036;-75
2023/10/10 08:21:39;;;;;;;6.47;2.22;;;16.40;99.90;;;;;;5119634;27;20419;-75
2023/10/10 08:24:12;;;;;;;6.38;2.28;;;16.50;99.90;;;;;;5089063;28;20046;-75
2023/10/10 08:26:41;;;;;;;10.77;3.55;;;16.50;99.90;;;;;;5094229;27;20068;-76
2023/10/10 08:29:11;;;;;;;4.57;1.45;;;16.50;99.90;;;;;;5089692;28;20079;-74
2023/10/10 08:31:39;;;;;;;5.70;3.67;;;16.60;99.90;;;;;;5098660;28;20042;-74
2023/10/10 08:34:07;;;;;;;2.65;2.33;;;16.60;99.90;;;;;;5118414;27;20283;-75
2023/10/10 08:36:33;;;;;;;1.88;1.42;;;16.60;99.90;;;;;;5083375;28;20123;-76
2023/10/10 08:41:59;;;;;;;5.93;2.28;;;16.70;99.90;;;;;;5060021;28;20100;-75
2023/10/10 08:44:28;;;;;;;3.33;2.78;;;16.80;99.90;;;;;;5089597;28;20038;-74
2023/10/10 08:46:58;;;;;;;2.42;2.22;;;16.80;99.90;;;;;;5081515;28;20052;-75
2023/10/10 08:49:28;;;;;;;11.73;2.08;;;16.90;99.90;;;;;;5098236;28;20040;-74
2023/10/10 08:52:00;;;;;;;1.13;1.08;;;17.00;99.90;;;;;;5107235;28;20039;-75
2023/10/10 08:54:26;;;;;;;2.05;1.85;;;17.10;99.90;;;;;;5090254;28;20181;-74
2023/10/10 08:57:03;;;;;;;1.80;1.65;;;17.10;99.90;;;;;;5087630;28;20043;-75
2023/10/10 08:59:32;;;;;;;1.73;1.25;;;17.20;99.90;;;;;;5088496;28;20048;-74
2023/10/10 09:02:07;;;;;;;4.30;3.67;;;17.20;99.90;;;;;;5091284;28;20039;-76
2023/10/10 09:04:33;;;;;;;4.15;1.27;;;17.20;99.90;;;;;;5121833;28;20051;-74
2023/10/10 09:07:00;;;;;;;3.72;2.40;;;17.30;99.90;;;;;;5122486;28;20513;-75
2023/10/10 09:09:54;;;;;;;2.05;1.60;;;17.30;99.90;;;;;;5075509;28;20416;-76
2023/10/10 09:12:21;;;;;;;9.93;2.28;;;17.50;99.90;;;;;;5115566;28;20043;-76
2023/10/10 09:14:50;;;;;;;5.50;2.55;;;17.60;99.90;;;;;;5079219;28;20050;-75
2023/10/10 09:17:28;;;;;;;3.83;1.10;;;17.70;99.90;;;;;;5084451;28;20065;-76
2023/10/10 09:19:57;;;;;;;2.40;1.52;;;17.70;99.90;;;;;;5095512;28;20027;-76
2023/10/10 09:22:43;;;;;;;2.55;2.35;;;17.80;99.90;;;;;;5115693;28;20076;-75
2023/10/10 09:25:25;;;;;;;2.33;1.27;;;17.80;99.90;;;;;;5112511;28;20067;-76
2023/10/10 09:28:06;;;;;;;5.15;3.13;;;17.90;99.90;;;;;;5113449;28;20076;-74
2023/10/10 09:30:34;;;;;;;3.17;2.17;;;17.90;99.90;;;;;;5079989;28;20042;-76
2023/10/10 09:33:13;;;;;;;3.92;3.53;;;18.00;99.90;;;;;;5116270;28;20039;-77
2023/10/10 09:35:48;;;;;;;2.33;1.45;;;18.00;99.90;;;;;;5114418;28;20047;-75
2023/10/10 09:38:19;;;;;;;1.45;1.35;;;18.10;99.90;;;;;;5073846;28;20048;-75
2023/10/10 09:40:48;;;;;;;4.15;2.50;;;18.10;99.90;;;;;;5081935;28;20075;-76
2023/10/10 09:43:25;;;;;;;2.53;2.35;;;18.10;99.90;;;;;;5084810;28;20073;-76
2023/10/10 09:46:10;;;;;;;3.83;2.33;;;18.20;99.90;;;;;;5085483;28;20126;-76
2023/10/10 09:51:30;;;;;;;3.38;3.05;;;18.30;99.90;;;;;;5086660;28;20164;-75
2023/10/10 09:56:50;;;;;;;2.45;1.83;;;18.40;99.90;;;;;;5084417;28;20094;-76
2023/10/10 09:59:19;;;;;;;4.35;1.88;;;18.50;99.90;;;;;;5117819;27;20547;-78
2023/10/10 10:01:46;;;;;;;5.55;1.85;;;18.50;99.90;;;;;;5087685;28;20453;-75
2023/10/10 10:04:24;;;;;;;5.55;3.88;;;18.60;99.90;;;;;;5083470;27;20055;-74
2023/10/10 10:06:57;;;;;;;2.67;1.83;;;18.70;99.90;;;;;;5086360;28;20043;-78
2023/10/10 10:09:32;;;;;;;2.78;1.17;;;18.80;99.90;;;;;;5118990;27;20042;-75
2023/10/10 10:12:31;;;;;;;1.63;1.52;;;18.90;99.90;;;;;;5082941;28;20046;-75
2023/10/10 10:15:22;;;;;;;1.45;1.35;;;18.90;99.90;;;;;;5044257;28;20081;-77
2023/10/10 10:23:34;;;;;;;5.53;2.42;;;19.10;99.90;;;;;;5073434;28;20053;-76
2023/10/10 10:26:09;;;;;;;2.22;1.55;;;19.10;99.90;;;;;;5114312;27;20395;-77
2023/10/10 10:28:38;;;;;;;5.28;2.55;;;19.20;99.90;;;;;;5081318;28;20039;-77
2023/10/10 10:31:16;;;;;;;4.80;2.05;;;19.30;99.90;;;;;;5082384;28;20129;-75
2023/10/10 10:34:05;;;;;;;2.10;1.35;;;19.30;99.90;;;;;;5083090;28;20092;-75
2023/10/10 10:36:50;;;;;;;2.95;1.95;;;19.30;99.90;;;;;;5113679;27;20059;-75
2023/10/10 10:39:23;;;;;;;4.00;2.65;;;19.30;99.90;;;;;;5082754;28;20039;-76
2023/10/10 10:41:55;;;;;;;2.47;2.15;;;19.30;99.90;;;;;;5115412;27;20042;-76
2023/10/10 10:44:45;;;;;;;5.57;3.00;;;19.30;99.90;;;;;;5091014;28;20092;-76
2023/10/10 10:47:45;;;;;;;6.25;2.67;;;19.40;99.90;;;;;;5093146;28;20105;-76
2023/10/10 10:50:40;;;;;;;2.25;1.73;;;19.40;99.90;;;;;;5106517;27;20407;-76
2023/10/10 10:53:30;;;;;;;2.03;1.92;;;19.50;99.90;;;;;;5091646;27;20034;-75
2023/10/10 11:01:23;;;;;;;6.57;3.95;;;19.90;99.90;;;;;;5084822;28;20039;-76
2023/10/10 11:03:53;;;;;;;3.85;3.25;;;20.00;99.90;;;;;;5079842;28;20138;-74
2023/10/10 11:06:20;;;;;;;2.35;1.58;;;20.10;99.90;;;;;;5078723;28;20074;-72
2023/10/10 11:14:29;;;;;;;5.82;2.97;;;20.30;99.90;;;;;;5106971;28;20043;-74
2023/10/10 11:16:57;;;;;;;4.43;2.05;;;20.30;99.90;;;;;;5091047;28;20643;-77
2023/10/10 11:19:38;;;;;;;1.73;1.58;;;20.40;99.90;;;;;;5091083;28;20050;-76
2023/10/10 11:22:05;;;;;;;4.18;2.92;;;20.40;99.90;;;;;;5126304;27;20044;-75
2023/10/10 11:24:33;;;;;;;1.88;1.40;;;20.40;99.90;;;;;;5126389;27;20036;-75
2023/10/10 11:27:14;;;;;;;3.78;2.63;;;20.40;99.90;;;;;;5091959;28;20043;-75
2023/10/10 11:29:47;;;;;;;4.00;2.17;;;20.30;99.90;;;;;;5075594;28;20062;-76
2023/10/10 11:32:13;;;;;;;1.83;1.17;;;20.30;99.90;;;;;;5118276;27;20043;-76
2023/10/10 11:34:46;;;;;;;4.68;2.38;;;20.30;99.90;;;;;;5078179;28;20047;-79
2023/10/10 11:37:23;;;;;;;1.55;1.45;;;20.40;99.90;;;;;;5128800;27;20070;-76
2023/10/10 11:40:19;;;;;;;4.53;2.72;;;20.40;99.90;;;;;;5120532;27;20085;-74
2023/10/10 11:42:49;;;;;;;3.28;1.65;;;20.50;99.90;;;;;;5117192;27;20059;-77
2023/10/10 11:45:17;;;;;;;4.40;1.63;;;20.60;99.90;;;;;;5092689;28;20043;-72
2023/10/10 11:47:53;;;;;;;6.68;2.33;;;20.70;99.90;;;;;;5075271;28;20040;-78
2023/10/10 11:50:27;;;;;;;2.90;2.60;;;20.90;99.90;;;;;;5084423;28;20442;-77
2023/10/10 11:52:56;;;;;;;3.50;2.60;;;21.00;99.90;;;;;;5091894;28;20051;-79
2023/10/10 11:55:25;;;;;;;3.15;1.63;;;21.10;99.90;;;;;;5092049;28;20115;-76
2023/10/10 11:57:57;;;;;;;1.45;1.23;;;20.90;99.90;;;;;;5091790;28;20047;-77
2023/10/10 12:00:29;;;;;;;;;;;20.90;99.90;;;;;;5092144;28;20051;-75
2023/10/10 12:03:05;;;;;;;3.50;1.98;;;20.90;99.90;;;;;;5107319;28;19920;-75
2023/10/10 12:08:00;;;;;;;5.47;2.53;;;20.70;99.90;;;;;;5092937;28;20104;-74
2023/10/10 12:10:41;;;;;;;1.10;1.00;;;20.70;99.90;;;;;;5090711;28;20176;-74
2023/10/10 12:13:09;;;;;;;0.85;0.77;;;20.80;99.90;;;;;;5128022;27;20110;-76
2023/10/10 12:15:39;;;;;;;2.00;1.80;;;20.90;99.90;;;;;;5092740;28;20036;-74
2023/10/10 12:18:14;;;;;;;1.30;0.82;;;21.00;99.90;;;;;;5110881;28;20035;-72
2023/10/10 12:20:49;;;;;;;1.77;1.52;;;21.00;99.90;;;;;;5077478;28;20120;-72
2023/10/10 12:23:14;;;;;;;1.48;1.38;;;21.00;99.90;;;;;;5073724;28;20165;-75
2023/10/10 12:25:43;;;;;;;2.88;1.55;;;21.00;99.90;;;;;;5073113;28;20143;-73
2023/10/10 12:28:09;;;;;;;1.95;1.25;;;21.00;99.90;;;;;;5091818;28;20043;-73
2023/10/10 12:30:42;;;;;;;0.93;0.90;;;21.00;99.90;;;;;;5124011;27;20039;-74
2023/10/10 12:33:08;;;;;;;2.78;1.13;;;21.00;99.90;;;;;;5093444;28;20078;-76
2023/10/10 12:35:35;;;;;;;1.33;0.73;;;20.90;99.90;;;;;;5073439;28;20040;-74
2023/10/10 12:38:02;;;;;;;1.17;0.88;;;20.80;99.90;;;;;;5083710;28;20073;-75
2023/10/10 12:40:33;;;;;;;0.68;0.68;;;20.80;99.90;;;;;;5090593;28;20042;-73
2023/10/10 12:43:00;;;;;;;2.30;1.92;;;20.70;99.90;;;;;;5094593;28;20499;-75
2023/10/10 12:45:26;;;;;;;3.33;1.98;;;20.70;99.90;;;;;;5091808;28;20088;-74
2023/10/10 12:47:53;;;;;;;1.60;1.52;;;20.70;99.90;;;;;;5091526;28;20036;-75
2023/10/10 12:50:26;;;;;;;3.33;3.00;;;20.60;99.90;;;;;;5090377;28;20043;-75
2023/10/10 12:53:07;;;;;;;1.10;0.93;;;20.60;99.90;;;;;;5092260;28;20047;-74
2023/10/10 12:55:37;;;;;;;1.42;1.33;;;20.60;99.90;;;;;;5090678;28;20067;-74
2023/10/10 12:58:15;;;;;;;1.83;0.70;;;20.70;99.90;;;;;;5088765;28;20035;-73
2023/10/10 13:00:50;;;;;;;4.18;2.28;;;20.70;99.90;;;;;;5084188;28;20151;-74
2023/10/10 13:03:22;;;;;;;3.70;1.80;;;20.70;99.90;;;;;;5084780;28;20126;-75
2023/10/10 13:05:50;;;;;;;3.10;1.98;;;20.80;99.90;;;;;;5088366;28;20043;-74
2023/10/10 13:08:17;;;;;;;4.18;2.63;;;20.70;99.90;;;;;;5090141;28;20428;-74
2023/10/10 13:10:44;;;;;;;1.85;1.05;;;20.70;99.90;;;;;;5089006;28;20070;-75
2023/10/10 13:13:09;;;;;;;1.67;1.58;;;20.70;99.90;;;;;;5090115;28;20031;-73
2023/10/10 13:15:49;;;;;;;2.50;2.30;;;20.70;99.90;;;;;;5089805;28;20497;-76
2023/10/10 13:18:22;;;;;;;6.40;2.45;;;20.60;99.90;;;;;;5082484;28;20107;-75
2023/10/10 13:20:50;;;;;;;2.22;1.83;;;20.60;99.90;;;;;;5093072;28;20112;-76
2023/10/10 13:23:17;;;;;;;2.88;2.65;;;20.60;99.90;;;;;;5093784;28;20031;-76
2023/10/10 13:25:43;;;;;;;4.18;2.42;;;20.60;99.90;;;;;;5094319;28;20374;-75
2023/10/10 13:28:17;;;;;;;3.55;2.53;;;20.60;99.90;;;;;;5095176;28;20133;-77
2023/10/10 13:30:46;;;;;;;4.22;2.28;;;20.50;99.90;;;;;;5128321;27;20043;-76
2023/10/10 13:33:15;;;;;;;11.07;1.90;;;20.50;99.90;;;;;;5081493;28;20056;-75
2023/10/10 13:35:42;;;;;;;3.47;1.65;;;20.50;99.90;;;;;;5087653;28;20089;-75
2023/10/10 13:38:08;;;;;;;1.92;1.83;;;20.40;99.90;;;;;;5089647;28;20093;-75
2023/10/10 13:40:48;;;;;;;6.22;3.92;;;20.30;99.90;;;;;;5128925;27;20296;-74
2023/10/10 13:43:17;;;;;;;2.30;1.48;;;20.30;99.90;;;;;;5128911;27;20401;-74
2023/10/10 13:45:50;;;;;;;1.75;1.35;;;20.30;99.90;;;;;;5081151;28;20075;-74
2023/10/10 13:48:21;;;;;;;2.67;0.82;;;20.30;99.90;;;;;;5088445;28;20398;-75
2023/10/10 13:50:51;;;;;;;1.73;1.63;;;20.40;99.90;;;;;;5088026;28;20035;-75
2023/10/10 13:53:17;;;;;;;4.10;1.00;;;20.40;99.90;;;;;;5090459;28;20495;-74
2023/10/10 13:55:45;;;;;;;4.60;2.65;;;20.40;99.90;;;;;;5088635;28;20043;-75
2023/10/10 13:58:15;;;;;;;2.53;2.33;;;20.30;99.90;;;;;;5093749;27;20390;-75
2023/10/10 14:00:55;;;;;;;1.60;1.38;;;20.30;99.90;;;;;;5084600;28;20032;-76
2023/10/10 14:03:28;;;;;;;3.85;1.85;;;20.30;99.90;;;;;;5081854;28;20102;-75
2023/10/10 14:06:08;;;;;;;2.85;1.30;;;20.40;99.90;;;;;;5105082;28;20039;-75
2023/10/10 14:08:33;;;;;;;1.48;0.65;;;20.40;99.90;;;;;;5089016;28;20080;-74
2023/10/10 14:11:01;;;;;;;1.45;0.98;;;20.40;99.90;;;;;;5090248;28;20462;-75
2023/10/10 14:13:32;;;;;;;1.90;1.45;;;20.30;99.90;;;;;;5078340;28;20300;-75
2023/10/10 14:15:58;;;;;;;1.75;1.55;;;20.30;99.90;;;;;;5089655;28;20143;-75
2023/10/10 14:18:28;;;;;;;0.88;0.68;;;20.30;99.90;;;;;;5092141;28;20456;-75
2023/10/10 14:20:54;;;;;;;2.13;1.70;;;20.30;99.90;;;;;;5091724;28;20047;-75
2023/10/10 14:23:25;;;;;;;1.27;0.98;;;20.40;99.90;;;;;;5091785;28;20058;-75
2023/10/10 14:26:12;;;;;;;1.85;0.68;;;20.40;99.90;;;;;;5091187;28;20040;-75
2023/10/10 14:28:38;;;;;;;2.55;0.50;;;20.40;99.90;;;;;;5088670;28;20039;-75
2023/10/10 14:31:04;;;;;;;1.77;0.52;;;20.50;99.90;;;;;;5090367;28;20038;-74
2023/10/10 14:33:29;;;;;;;1.10;0.77;;;20.50;99.90;;;;;;5090813;28;20043;-74
2023/10/10 14:35:55;;;;;;;0.82;0.80;;;20.40;99.90;;;;;;5078399;27;20049;-74
2023/10/10 14:38:21;;;;;;;3.05;0.70;;;20.50;99.90;;;;;;5095234;28;20440;-75
2023/10/10 14:40:46;;;;;;;0.73;0.73;;;20.40;99.90;;;;;;5090354;28;20063;-74
2023/10/10 14:43:12;;;;;;;4.50;1.05;;;20.30;99.90;;;;;;5081001;27;20036;-75
2023/10/10 14:45:43;;;;;;;0.70;0.70;;;20.30;99.90;;;;;;5083572;27;20035;-74
2023/10/10 14:48:18;;;;;;;1.65;1.23;;;20.30;99.90;;;;;;5124079;27;20036;-74
2023/10/10 14:50:53;;;;;;;1.30;1.20;;;20.20;99.90;;;;;;5086459;28;20035;-74
2023/10/10 14:53:22;;;;;;;3.72;1.50;;;20.20;99.90;;;;;;5080922;28;20591;-74
2023/10/10 14:55:51;;;;;;;0.57;0.47;;;20.20;99.90;;;;;;5094377;27;20502;-73
2023/10/10 14:58:23;;;;;;;1.33;0.75;;;20.20;99.90;;;;;;5098398;28;20046;-75
2023/10/10 15:00:56;;;;;;;1.13;0.73;;;20.20;99.90;;;;;;5080350;28;20604;-74
2023/10/10 15:03:25;;;;;;;1.42;1.33;;;20.10;99.90;;;;;;5082261;28;20531;-74
2023/10/10 15:05:51;;;;;;;0.77;0.77;;;20.10;99.90;;;;;;5116071;27;20414;-73
2023/10/10 15:08:19;;;;;;;6.30;1.25;;;20.10;99.90;;;;;;5064629;28;20719;-74
2023/10/10 15:10:46;;;;;;;1.42;1.05;;;20.00;99.90;;;;;;5079804;28;20051;-75
2023/10/10 15:13:15;;;;;;;0.65;0.63;;;20.00;99.90;;;;;;5079338;28;20039;-74
2023/10/10 15:15:45;;;;;;;2.38;1.65;;;20.00;99.90;;;;;;5080170;27;20043;-74
2023/10/10 15:18:23;;;;;;;0.38;0.38;;;20.10;99.90;;;;;;5117067;27;20035;-74
2023/10/10 15:20:49;;;;;;;3.00;1.13;;;20.10;99.90;;;;;;5112484;27;20094;-74
2023/10/10 15:23:21;;;;;;;0.43;0.43;;;20.10;99.90;;;;;;5082539;28;20482;-74
2023/10/10 15:25:53;;;;;;;;;;;20.10;99.90;;;;;;5080445;28;20032;-74
2023/10/10 15:28:19;;;;;;;1.08;0.50;;;20.10;99.90;;;;;;5113375;27;19920;-75
2023/10/10 15:30:45;;;;;;;1.50;0.93;;;20.10;99.90;;;;;;5081224;28;20422;-74
2023/10/10 15:33:17;;;;;;;1.98;1.05;;;20.10;99.90;;;;;;5083675;28;20069;-75
2023/10/10 15:35:49;;;;;;;0.55;0.55;;;20.00;99.90;;;;;;5111432;27;20040;-74
2023/10/10 15:38:19;;;;;;;1.08;0.30;;;20.00;99.90;;;;;;5086793;27;20043;-74
2023/10/10 15:40:46;;;;;;;0.25;0.25;;;20.00;99.90;;;;;;5084706;28;20056;-74
2023/10/10 15:43:11;;;;;;;0.98;0.85;;;20.00;99.90;;;;;;5081328;28;20272;-74
2023/10/10 15:45:44;;;;;;;4.80;0.88;;;20.00;99.90;;;;;;5083499;28;20035;-74
2023/10/10 15:48:22;;;;;;;0.32;0.32;;;20.00;99.90;;;;;;5074676;28;20130;-74
2023/10/10 15:50:51;;;;;;;1.50;0.90;;;20.00;99.90;;;;;;5112495;27;20031;-74
2023/10/10 15:53:21;;;;;;;3.40;2.20;;;20.00;99.90;;;;;;5119280;27;20043;-72
2023/10/10 15:56:07;;;;;;;1.23;0.85;;;19.90;99.90;;;;;;5113398;27;20040;-73